createdAt,value
2022-09-12T00:00:29.891Z,29.11
2022-09-12T00:02:57.844Z,29.11
2022-09-12T00:05:27.081Z,29.04
2022-09-12T00:07:55.262Z,28.99
2022-09-12T00:10:23.339Z,28.99
2022-09-12T00:12:51.626Z,29.02
2022-09-12T00:15:19.907Z,28.96
2022-09-12T00:17:47.976Z,28.96
2022-09-12T00:20:15.972Z,28.92
2022-09-12T00:22:43.971Z,28.91
2022-09-12T00:25:12.251Z,28.91
2022-09-12T00:27:40.295Z,28.81
2022-09-12T00:30:08.611Z,28.62
2022-09-12T00:32:36.616Z,28.46
2022-09-12T00:35:04.769Z,28.39
2022-09-12T00:37:32.772Z,28.27
2022-09-12T00:40:00.794Z,28.19
2022-09-12T00:42:28.882Z,28.11
2022-09-12T00:44:56.931Z,28.01
2022-09-12T00:47:34.307Z,28.00
2022-09-12T00:50:08.260Z,27.95
2022-09-12T00:52:44.771Z,27.88
2022-09-12T00:55:32.935Z,27.81
2022-09-12T00:58:06.532Z,27.75
2022-09-12T01:00:34.864Z,27.69
2022-09-12T01:03:07.249Z,27.61
2022-09-12T01:05:36.616Z,27.51
2022-09-12T01:08:05.692Z,27.43
2022-09-12T01:10:35.936Z,27.40
2022-09-12T01:13:06.406Z,27.29
2022-09-12T01:15:34.995Z,27.18
2022-09-12T01:18:03.163Z,27.08
2022-09-12T01:20:31.331Z,27.01
2022-09-12T01:23:22.324Z,26.88
2022-09-12T01:26:02.530Z,26.85
2022-09-12T01:28:49.189Z,26.77
2022-09-12T01:31:31.597Z,26.65
2022-09-12T01:34:19.168Z,26.49
2022-09-12T01:36:52.462Z,26.34
2022-09-12T01:39:43.367Z,26.18
2022-09-12T01:42:42.209Z,26.05
2022-09-12T01:45:27.075Z,25.97
2022-09-12T01:48:06.325Z,25.87
2022-09-12T01:50:37.351Z,25.76
2022-09-12T01:53:09.567Z,25.67
2022-09-12T01:55:40.388Z,25.55
2022-09-12T01:58:17.134Z,25.50
2022-09-12T02:01:02.738Z,25.42
2022-09-12T02:03:34.666Z,25.34
2022-09-12T02:06:09.899Z,25.21
2022-09-12T02:08:49.896Z,25.11
2022-09-12T02:11:17.981Z,25.03
2022-09-12T02:13:49.965Z,24.97
2022-09-12T02:16:25.028Z,24.88
2022-09-12T02:18:56.448Z,24.78
2022-09-12T02:21:25.883Z,24.78
2022-09-12T02:23:57.986Z,24.72
2022-09-12T02:26:30.205Z,24.71
2022-09-12T02:28:58.347Z,24.67
2022-09-12T02:31:29.242Z,24.63
2022-09-12T02:34:16.141Z,24.59
2022-09-12T02:36:59.005Z,24.44
2022-09-12T02:39:27.147Z,24.36
2022-09-12T02:41:57.582Z,24.36
2022-09-12T02:44:26.930Z,24.31
2022-09-12T02:46:56.994Z,24.27
2022-09-12T02:49:26.143Z,24.28
2022-09-12T02:51:54.324Z,24.29
2022-09-12T02:54:22.381Z,24.28
2022-09-12T02:56:50.372Z,24.23
2022-09-12T02:59:20.291Z,24.17
2022-09-12T03:01:55.369Z,24.11
2022-09-12T03:04:32.572Z,24.09
2022-09-12T03:07:13.471Z,23.94
2022-09-12T03:10:01.893Z,23.80
2022-09-12T03:12:40.270Z,23.80
2022-09-12T03:15:22.015Z,23.75
2022-09-12T03:17:59.647Z,23.71
2022-09-12T03:20:30.461Z,23.71
2022-09-12T03:23:02.019Z,23.69
2022-09-12T03:25:33.751Z,23.65
2022-09-12T03:28:01.846Z,23.61
2022-09-12T03:30:29.969Z,23.59
2022-09-12T03:32:58.031Z,23.58
2022-09-12T03:35:26.514Z,23.59
2022-09-12T03:37:54.686Z,23.58
2022-09-12T03:40:22.830Z,23.58
2022-09-12T03:42:50.851Z,23.59
2022-09-12T03:45:19.646Z,23.55
2022-09-12T03:47:47.766Z,23.54
2022-09-12T03:50:15.761Z,23.57
2022-09-12T03:52:43.811Z,23.49
2022-09-12T03:55:11.955Z,23.42
2022-09-12T03:57:40.067Z,23.36
2022-09-12T04:00:09.725Z,23.33
2022-09-12T04:02:37.891Z,23.28
2022-09-12T04:05:06.216Z,23.14
2022-09-12T04:07:34.210Z,23.06
2022-09-12T04:10:02.260Z,23.05
2022-09-12T04:12:30.822Z,23.03
2022-09-12T04:14:58.846Z,23.07
2022-09-12T04:17:26.822Z,23.08
2022-09-12T04:19:54.851Z,23.05
2022-09-12T04:22:22.956Z,23.03
2022-09-12T04:24:50.952Z,22.96
2022-09-12T04:27:20.969Z,22.89
2022-09-12T04:29:49.025Z,22.95
2022-09-12T04:32:17.001Z,22.94
2022-09-12T04:34:45.064Z,22.88
2022-09-12T04:37:13.056Z,22.90
2022-09-12T04:39:42.268Z,22.90
2022-09-12T04:42:10.271Z,22.94
2022-09-12T04:44:38.686Z,22.95
2022-09-12T04:47:06.841Z,22.96
2022-09-12T04:49:34.971Z,22.95
2022-09-12T04:52:03.311Z,22.92
2022-09-12T04:54:31.331Z,22.92
2022-09-12T04:57:00.089Z,22.88
2022-09-12T04:59:28.757Z,22.79
2022-09-12T05:01:56.793Z,22.68
2022-09-12T05:04:25.219Z,22.69
2022-09-12T05:06:53.351Z,22.70
2022-09-12T05:09:21.729Z,22.71
2022-09-12T05:12:05.640Z,22.74
2022-09-12T05:14:34.514Z,22.71
2022-09-12T05:17:03.154Z,22.69
2022-09-12T05:19:32.293Z,22.66
2022-09-12T05:22:00.911Z,22.64
2022-09-12T05:24:29.411Z,22.61
2022-09-12T05:26:57.712Z,22.56
2022-09-12T05:29:26.516Z,22.57
2022-09-12T05:31:54.856Z,22.55
2022-09-12T05:34:23.122Z,22.49
2022-09-12T05:36:51.335Z,22.48
2022-09-12T05:39:19.651Z,22.48
2022-09-12T05:41:48.276Z,22.45
2022-09-12T05:44:16.436Z,22.44
2022-09-12T05:46:45.260Z,22.44
2022-09-12T05:49:14.702Z,22.43
2022-09-12T05:51:44.748Z,22.42
2022-09-12T05:54:14.372Z,22.39
2022-09-12T05:56:43.642Z,22.36
2022-09-12T05:59:14.207Z,22.35
2022-09-12T06:01:42.800Z,22.31
2022-09-12T06:04:11.652Z,22.25
2022-09-12T06:06:42.696Z,22.18
2022-09-12T06:09:11.187Z,22.13
2022-09-12T06:11:41.906Z,22.11
2022-09-12T06:14:11.165Z,22.08
2022-09-12T06:16:39.868Z,22.04
2022-09-12T06:19:09.537Z,22.03
2022-09-12T06:21:39.850Z,21.96
2022-09-12T06:24:08.721Z,21.92
2022-09-12T06:26:37.406Z,21.92
2022-09-12T06:29:06.044Z,21.92
2022-09-12T06:31:35.971Z,21.92
2022-09-12T06:34:05.894Z,21.90
2022-09-12T06:36:35.581Z,21.88
2022-09-12T06:39:08.611Z,21.86
2022-09-12T06:41:38.455Z,21.85
2022-09-12T06:44:13.725Z,21.83
2022-09-12T06:46:41.731Z,21.85
2022-09-12T06:49:09.891Z,21.83
2022-09-12T06:51:38.358Z,21.80
2022-09-12T06:54:06.526Z,21.80
2022-09-12T06:56:34.664Z,21.80
2022-09-12T06:59:02.706Z,21.75
2022-09-12T07:01:32.135Z,21.71
2022-09-12T07:04:01.646Z,21.69
2022-09-12T07:06:32.929Z,21.69
2022-09-12T07:09:02.038Z,21.69
2022-09-12T07:11:34.541Z,21.67
2022-09-12T07:14:04.126Z,21.64
2022-09-12T07:16:32.280Z,21.61
2022-09-12T07:19:01.588Z,21.55
2022-09-12T07:21:30.055Z,21.51
2022-09-12T07:24:01.571Z,21.48
2022-09-12T07:26:30.389Z,21.46
2022-09-12T07:29:18.591Z,21.45
2022-09-12T07:31:47.596Z,21.40
2022-09-12T07:34:15.636Z,21.41
2022-09-12T07:36:43.652Z,21.45
2022-09-12T07:39:12.271Z,21.43
2022-09-12T07:41:40.457Z,21.44
2022-09-12T07:44:08.499Z,21.45
2022-09-12T07:46:36.617Z,21.41
2022-09-12T07:49:04.611Z,21.40
2022-09-12T07:51:32.912Z,21.38
2022-09-12T07:54:01.089Z,21.34
2022-09-12T07:56:31.134Z,21.35
2022-09-12T07:59:00.911Z,21.37
2022-09-12T08:01:29.021Z,21.37
2022-09-12T08:03:58.821Z,21.37
2022-09-12T08:06:27.769Z,21.38
2022-09-12T08:08:56.916Z,21.40
2022-09-12T08:11:26.310Z,21.41
2022-09-12T08:13:55.882Z,21.41
2022-09-12T08:16:25.535Z,21.43
2022-09-12T08:18:53.571Z,21.39
2022-09-12T08:21:23.010Z,21.39
2022-09-12T08:23:55.271Z,21.38
2022-09-12T08:26:23.362Z,21.36
2022-09-12T08:28:51.498Z,21.35
2022-09-12T08:31:20.581Z,21.33
2022-09-12T08:33:48.931Z,21.32
2022-09-12T08:36:27.171Z,21.33
2022-09-12T08:39:00.143Z,21.29
2022-09-12T08:41:40.933Z,21.31
2022-09-12T08:44:18.139Z,21.35
2022-09-12T08:47:04.611Z,21.35
2022-09-12T08:49:35.811Z,21.32
2022-09-12T08:52:09.211Z,21.32
2022-09-12T08:54:37.256Z,21.29
2022-09-12T08:57:06.575Z,21.26
2022-09-12T08:59:42.186Z,21.29
2022-09-12T09:02:16.025Z,21.30
2022-09-12T09:04:55.791Z,21.30
2022-09-12T09:07:29.895Z,21.27
2022-09-12T09:10:15.152Z,21.23
2022-09-12T09:12:54.510Z,21.25
2022-09-12T09:15:37.579Z,21.27
2022-09-12T09:18:07.017Z,21.27
2022-09-12T09:20:50.689Z,21.27
2022-09-12T09:23:29.391Z,21.28
2022-09-12T09:26:03.522Z,21.29
2022-09-12T09:28:34.372Z,21.29
2022-09-12T09:33:34.416Z,21.25
2022-09-12T09:36:08.710Z,21.22
2022-09-12T09:38:45.404Z,21.22
2022-09-12T09:41:22.221Z,21.23
2022-09-12T09:43:50.372Z,21.25
2022-09-12T09:46:18.551Z,21.25
2022-09-12T09:48:48.859Z,21.26
2022-09-12T09:51:18.933Z,21.24
2022-09-12T09:53:49.930Z,21.25
2022-09-12T09:56:36.428Z,21.23
2022-09-12T09:59:12.856Z,21.25
2022-09-12T10:01:47.543Z,21.23
2022-09-12T10:04:20.949Z,21.25
2022-09-12T10:06:49.032Z,21.22
2022-09-12T10:09:17.073Z,21.20
2022-09-12T10:11:45.994Z,21.18
2022-09-12T10:14:32.616Z,21.17
2022-09-12T10:17:00.612Z,21.17
2022-09-12T10:19:39.211Z,21.17
2022-09-12T10:22:08.409Z,21.17
2022-09-12T10:24:39.486Z,21.17
2022-09-12T10:27:07.441Z,21.15
2022-09-12T10:29:40.609Z,21.14
2022-09-12T10:32:10.305Z,21.13
2022-09-12T10:34:40.292Z,21.10
2022-09-12T10:37:18.530Z,21.08
2022-09-12T10:39:54.422Z,21.08
2022-09-12T10:42:40.951Z,21.06
2022-09-12T10:45:19.306Z,21.06
2022-09-12T10:47:48.133Z,21.03
2022-09-12T10:50:27.186Z,20.99
2022-09-12T10:52:55.971Z,20.95
2022-09-12T10:55:27.654Z,20.92
2022-09-12T10:57:55.651Z,20.90
2022-09-12T11:00:28.773Z,20.88
2022-09-12T11:03:07.977Z,20.86
2022-09-12T11:05:51.321Z,20.80
2022-09-12T11:08:23.334Z,20.79
2022-09-12T11:11:05.735Z,20.80
2022-09-12T11:13:36.971Z,20.82
2022-09-12T11:16:42.090Z,20.82
2022-09-12T11:19:29.120Z,20.80
2022-09-12T11:22:00.208Z,20.80
2022-09-12T11:24:31.375Z,20.79
2022-09-12T11:27:10.031Z,20.80
2022-09-12T11:29:41.091Z,20.80
2022-09-12T11:32:15.171Z,20.80
2022-09-12T11:34:50.704Z,20.75
2022-09-12T11:37:18.671Z,20.65
2022-09-12T11:39:50.383Z,20.64
2022-09-12T11:42:23.616Z,20.65
2022-09-12T11:44:59.813Z,20.57
2022-09-12T11:47:30.211Z,20.55
2022-09-12T11:49:59.166Z,20.50
2022-09-12T11:52:31.581Z,20.48
2022-09-12T11:55:26.022Z,20.48
2022-09-12T11:57:55.173Z,20.50
2022-09-12T12:00:30.059Z,20.52
2022-09-12T12:03:13.545Z,20.52
2022-09-12T12:05:53.214Z,20.54
2022-09-12T12:08:25.886Z,20.54
2022-09-12T12:11:01.686Z,20.56
2022-09-12T12:13:35.198Z,20.52
2022-09-12T12:16:06.415Z,20.52
2022-09-12T12:18:36.639Z,20.53
2022-09-12T12:21:22.861Z,20.55
2022-09-12T12:24:06.456Z,20.56
2022-09-12T12:26:43.656Z,20.56
2022-09-12T12:29:23.271Z,20.56
2022-09-12T12:32:06.772Z,20.56
2022-09-12T12:34:38.827Z,20.53
2022-09-12T12:37:26.542Z,20.51
2022-09-12T12:40:02.133Z,20.48
2022-09-12T12:42:36.192Z,20.44
2022-09-12T12:45:10.212Z,20.42
2022-09-12T12:47:44.105Z,20.42
2022-09-12T12:50:12.148Z,20.40
2022-09-12T12:52:58.980Z,20.38
2022-09-12T12:55:30.046Z,20.36
2022-09-12T12:57:59.091Z,20.35
2022-09-12T13:00:27.498Z,20.34
2022-09-12T13:02:59.061Z,20.32
2022-09-12T13:05:27.811Z,20.27
2022-09-12T13:08:11.214Z,20.21
2022-09-12T13:10:39.807Z,20.19
2022-09-12T13:13:09.734Z,20.17
2022-09-12T13:15:37.721Z,20.15
2022-09-12T13:18:08.200Z,20.15
2022-09-12T13:20:39.647Z,20.17
2022-09-12T13:23:07.778Z,20.18
2022-09-12T13:25:36.771Z,20.19
2022-09-12T13:28:17.017Z,20.16
2022-09-12T13:30:47.803Z,20.12
2022-09-12T13:33:34.201Z,20.09
2022-09-12T13:36:02.211Z,20.03
2022-09-12T13:38:48.476Z,20.02
2022-09-12T13:41:16.722Z,20.00
2022-09-12T13:43:47.970Z,19.98
2022-09-12T13:46:18.824Z,19.97
2022-09-12T13:48:47.229Z,19.94
2022-09-12T13:51:26.987Z,19.92
2022-09-12T13:53:57.251Z,19.92
2022-09-12T13:56:25.421Z,19.93
2022-09-12T13:58:55.141Z,19.95
2022-09-12T14:01:23.685Z,19.99
2022-09-12T14:04:11.813Z,20.03
2022-09-12T14:06:53.247Z,20.08
2022-09-12T14:09:30.187Z,20.12
2022-09-12T14:11:59.411Z,20.17
2022-09-12T14:14:43.171Z,20.21
2022-09-12T14:17:22.999Z,20.25
2022-09-12T14:19:53.631Z,20.27
2022-09-12T14:22:21.810Z,20.28
2022-09-12T14:24:53.926Z,20.32
2022-09-12T14:27:27.177Z,20.37
2022-09-12T14:29:59.332Z,20.37
2022-09-12T14:32:27.347Z,20.37
2022-09-12T14:35:07.332Z,20.37
2022-09-12T14:37:35.485Z,20.37
2022-09-12T14:40:03.987Z,20.38
2022-09-12T14:42:32.938Z,20.39
2022-09-12T14:45:07.428Z,20.42
2022-09-12T14:47:41.384Z,20.41
2022-09-12T14:50:35.337Z,20.42
2022-09-12T14:53:07.447Z,20.42
2022-09-12T14:55:36.756Z,20.45
2022-09-12T14:58:24.527Z,20.48
2022-09-12T15:01:08.294Z,20.48
2022-09-12T15:03:37.971Z,20.43
2022-09-12T15:06:09.079Z,20.42
2022-09-12T15:08:37.330Z,20.48
2022-09-12T15:11:08.396Z,20.51
2022-09-12T15:13:41.096Z,20.57
2022-09-12T15:16:11.654Z,20.63
2022-09-12T15:18:40.410Z,20.69
2022-09-12T15:21:09.930Z,20.68
2022-09-12T15:23:41.261Z,20.75
2022-09-12T15:26:11.411Z,20.83
2022-09-12T15:28:39.393Z,20.93
2022-09-12T15:31:09.768Z,21.02
2022-09-12T15:33:38.031Z,21.08
2022-09-12T15:36:13.254Z,21.14
2022-09-12T15:38:41.258Z,21.19
2022-09-12T15:41:17.416Z,21.21
2022-09-12T15:43:45.711Z,21.22
2022-09-12T15:46:14.892Z,21.23
2022-09-12T15:48:43.011Z,21.29
2022-09-12T15:51:15.657Z,21.34
2022-09-12T15:53:44.694Z,21.39
2022-09-12T15:56:13.012Z,21.39
2022-09-12T15:58:57.292Z,21.40
2022-09-12T16:01:26.887Z,21.36
2022-09-12T16:03:55.437Z,21.42
2022-09-12T16:06:24.453Z,21.54
2022-09-12T16:08:52.550Z,21.64
2022-09-12T16:11:20.596Z,21.68
2022-09-12T16:13:48.617Z,21.72
2022-09-12T16:16:16.763Z,21.73
2022-09-12T16:18:44.820Z,21.76
2022-09-12T16:21:15.219Z,21.80
2022-09-12T16:23:44.776Z,21.88
2022-09-12T16:26:12.854Z,21.91
2022-09-12T16:28:41.060Z,21.90
2022-09-12T16:31:10.159Z,21.98
2022-09-12T16:33:39.340Z,22.07
2022-09-12T16:36:09.693Z,22.16
2022-09-12T16:38:44.811Z,22.22
2022-09-12T16:41:13.416Z,22.26
2022-09-12T16:43:41.980Z,22.28
2022-09-12T16:46:14.868Z,22.27
2022-09-12T16:48:46.927Z,22.29
2022-09-12T16:51:21.258Z,22.34
2022-09-12T16:53:49.887Z,22.41
2022-09-12T16:56:18.382Z,22.46
2022-09-12T16:58:46.491Z,22.53
2022-09-12T17:01:24.977Z,22.63
2022-09-12T17:03:57.796Z,22.69
2022-09-12T17:06:26.811Z,22.75
2022-09-12T17:08:55.814Z,22.82
2022-09-12T17:11:25.397Z,22.89
2022-09-12T17:14:05.821Z,23.07
2022-09-12T17:16:36.492Z,23.20
2022-09-12T17:19:05.108Z,23.30
2022-09-12T17:21:33.115Z,23.33
2022-09-12T17:24:01.244Z,23.35
2022-09-12T17:26:29.357Z,23.40
2022-09-12T17:28:57.420Z,23.40
2022-09-12T17:31:25.570Z,23.45
2022-09-12T17:33:56.928Z,23.62
2022-09-12T17:36:25.186Z,23.72
2022-09-12T17:38:55.156Z,23.81
2022-09-12T17:41:24.937Z,23.80
2022-09-12T17:43:55.332Z,23.84
2022-09-12T17:46:24.666Z,24.02
2022-09-12T17:48:53.721Z,24.12
2022-09-12T17:51:23.091Z,24.06
2022-09-12T17:53:51.172Z,24.10
2022-09-12T17:56:19.171Z,24.20
2022-09-12T17:58:47.172Z,24.30
2022-09-12T18:01:34.062Z,24.36
2022-09-12T18:04:02.693Z,24.37
2022-09-12T18:06:31.491Z,24.50
2022-09-12T18:09:07.011Z,24.69
2022-09-12T18:11:35.516Z,24.69
2022-09-12T18:14:03.906Z,24.68
2022-09-12T18:16:32.611Z,24.70
2022-09-12T18:19:02.686Z,24.75
2022-09-12T18:21:31.012Z,24.89
2022-09-12T18:24:00.371Z,25.02
2022-09-12T18:26:29.576Z,25.14
2022-09-12T18:28:58.214Z,25.18
2022-09-12T18:31:28.217Z,25.28
2022-09-12T18:33:56.769Z,25.43
2022-09-12T18:36:24.886Z,25.46
2022-09-12T18:38:52.936Z,25.57
2022-09-12T18:41:22.521Z,25.64
2022-09-12T18:43:54.370Z,25.67
2022-09-12T18:46:22.834Z,25.75
2022-09-12T18:48:51.170Z,25.79
2022-09-12T18:51:23.566Z,25.84
2022-09-12T18:53:53.867Z,25.89
2022-09-12T18:56:22.984Z,25.95
2022-09-12T18:58:53.245Z,26.03
2022-09-12T19:01:22.670Z,26.18
2022-09-12T19:03:51.331Z,26.34
2022-09-12T19:06:21.007Z,26.46
2022-09-12T19:08:50.064Z,26.56
2022-09-12T19:11:18.535Z,26.64
2022-09-12T19:13:48.206Z,26.80
2022-09-12T19:16:18.588Z,26.93
2022-09-12T19:18:50.516Z,27.05
2022-09-12T19:21:20.222Z,27.23
2022-09-12T19:23:48.359Z,27.36
2022-09-12T19:26:17.411Z,27.43
2022-09-12T19:28:46.211Z,27.37
2022-09-12T19:31:15.893Z,27.38
2022-09-12T19:33:44.111Z,27.42
2022-09-12T19:36:33.989Z,27.51
2022-09-12T19:39:02.185Z,27.60
2022-09-12T19:41:30.182Z,27.65
2022-09-12T19:43:58.231Z,27.70
2022-09-12T19:46:27.059Z,27.89
2022-09-12T19:48:55.312Z,27.95
2022-09-12T19:51:24.916Z,27.96
2022-09-12T19:53:53.321Z,28.01
2022-09-12T19:56:21.448Z,28.04
2022-09-12T19:58:53.731Z,28.13
2022-09-12T20:01:35.688Z,28.10
2022-09-12T20:04:04.026Z,28.10
2022-09-12T20:06:32.067Z,28.20
2022-09-12T20:09:00.160Z,28.24
2022-09-12T20:11:28.270Z,28.26
2022-09-12T20:13:56.294Z,28.35
2022-09-12T20:16:30.266Z,28.32
2022-09-12T20:18:59.960Z,28.35
2022-09-12T20:21:36.767Z,28.41
2022-09-12T20:24:06.365Z,28.53
2022-09-12T20:26:34.356Z,28.46
2022-09-12T20:29:02.455Z,28.41
2022-09-12T20:31:31.285Z,28.35
2022-09-12T20:33:59.497Z,28.29
2022-09-12T20:36:27.789Z,28.30
2022-09-12T20:39:00.915Z,28.31
2022-09-12T20:41:30.125Z,28.33
2022-09-12T20:43:58.463Z,28.39
2022-09-12T20:46:27.493Z,28.46
2022-09-12T20:48:55.972Z,28.50
2022-09-12T20:51:27.458Z,28.49
2022-09-12T20:53:56.056Z,28.35
2022-09-12T20:56:24.689Z,28.14
2022-09-12T20:58:53.076Z,28.01
2022-09-12T21:01:21.787Z,27.85
2022-09-12T21:03:50.347Z,27.69
2022-09-12T21:06:19.005Z,27.59
2022-09-12T21:08:48.115Z,27.49
2022-09-12T21:11:16.772Z,27.43
2022-09-12T21:13:44.880Z,27.45
2022-09-12T21:16:14.339Z,27.36
2022-09-12T21:18:42.950Z,27.33
2022-09-12T21:21:12.286Z,27.40
2022-09-12T21:23:40.308Z,27.44
2022-09-12T21:26:09.027Z,27.40
2022-09-12T21:28:37.091Z,27.19
2022-09-12T21:31:05.737Z,27.03
2022-09-12T21:33:33.845Z,27.02
2022-09-12T21:36:05.861Z,27.08
2022-09-12T21:38:34.006Z,27.06
2022-09-12T21:41:06.197Z,27.30
2022-09-12T21:43:34.372Z,27.55
2022-09-12T21:46:02.989Z,27.74
2022-09-12T21:48:31.656Z,27.90
2022-09-12T21:50:59.809Z,28.01
2022-09-12T21:53:28.293Z,28.08
2022-09-12T21:55:56.412Z,28.15
2022-09-12T21:58:24.411Z,28.22
2022-09-12T22:00:52.913Z,28.24
2022-09-12T22:03:20.966Z,28.31
2022-09-12T22:05:52.297Z,28.44
2022-09-12T22:08:20.406Z,28.44
2022-09-12T22:10:48.552Z,28.43
2022-09-12T22:13:16.617Z,28.38
2022-09-12T22:15:48.793Z,28.61
2022-09-12T22:18:16.806Z,28.39
2022-09-12T22:20:44.911Z,28.16
2022-09-12T22:23:34.466Z,28.17
2022-09-12T22:26:03.356Z,28.08
2022-09-12T22:28:33.211Z,28.06
2022-09-12T22:31:01.697Z,27.98
2022-09-12T22:33:29.832Z,27.96
2022-09-12T22:35:57.891Z,27.77
2022-09-12T22:38:26.982Z,27.79
2022-09-12T22:40:55.376Z,27.60
2022-09-12T22:43:23.496Z,27.50
2022-09-12T22:45:51.631Z,27.57
2022-09-12T22:48:19.806Z,27.54
2022-09-12T22:50:47.972Z,27.27
2022-09-12T22:53:16.017Z,26.93
2022-09-12T22:55:44.887Z,26.62
2022-09-12T22:58:13.346Z,26.42
2022-09-12T23:00:41.510Z,26.05
2022-09-12T23:03:09.741Z,25.74
2022-09-12T23:05:38.476Z,25.60
2022-09-12T23:08:06.531Z,25.49
2022-09-12T23:10:37.566Z,25.36
2022-09-12T23:13:05.794Z,25.16
2022-09-12T23:15:34.371Z,25.05
2022-09-12T23:18:04.941Z,24.97
2022-09-12T23:20:33.256Z,24.87
2022-09-12T23:23:01.251Z,24.89
2022-09-12T23:25:29.458Z,24.83
2022-09-12T23:27:57.555Z,24.77
2022-09-12T23:30:25.627Z,24.80
2022-09-12T23:32:53.711Z,24.82
2022-09-12T23:35:21.731Z,24.80
2022-09-12T23:37:49.995Z,24.73
2022-09-12T23:40:18.645Z,24.62
2022-09-12T23:42:49.020Z,24.45
2022-09-12T23:45:17.071Z,24.30
2022-09-12T23:47:45.171Z,24.34
2022-09-12T23:50:13.191Z,24.38
2022-09-12T23:52:41.219Z,24.36
2022-09-12T23:55:09.732Z,24.31
2022-09-12T23:57:37.731Z,24.26
